sensor_id;sensor_type;location;lat;lon;timestamp;P1;durP1;ratioP1;P2;durP2;ratioP2
38901;SDS011;24661;53.566;9.910;2022-11-25T00:00:45;30.57;;;16.07;;
38901;SDS011;24661;53.566;9.910;2022-11-25T00:03:12;28.90;;;13.93;;
38901;SDS011;24661;53.566;9.910;2022-11-25T00:05:38;28.33;;;13.37;;
38901;SDS011;24661;53.566;9.910;2022-11-25T00:08:03;32.90;;;14.30;;
38901;SDS011;24661;53.566;9.910;2022-11-25T00:10:29;27.43;;;15.60;;
38901;SDS011;24661;53.566;9.910;2022-11-25T00:12:54;33.10;;;14.83;;
38901;SDS011;24661;53.566;9.910;2022-11-25T00:15:20;33.70;;;15.27;;
38901;SDS011;24661;53.566;9.910;2022-11-25T00:17:45;31.50;;;14.73;;
38901;SDS011;24661;53.566;9.910;2022-11-25T00:22:37;74.40;;;17.67;;
38901;SDS011;24661;53.566;9.910;2022-11-25T00:25:02;84.67;;;18.63;;
38901;SDS011;24661;53.566;9.910;2022-11-25T00:27:28;75.17;;;17.83;;
38901;SDS011;24661;53.566;9.910;2022-11-25T00:29:54;96.70;;;20.77;;
38901;SDS011;24661;53.566;9.910;2022-11-25T00:32:19;79.70;;;16.17;;
38901;SDS011;24661;53.566;9.910;2022-11-25T00:34:45;67.03;;;16.57;;
38901;SDS011;24661;53.566;9.910;2022-11-25T00:37:11;100.13;;;16.47;;
38901;SDS011;24661;53.566;9.910;2022-11-25T00:39:36;54.07;;;14.27;;
38901;SDS011;24661;53.566;9.910;2022-11-25T00:42:02;82.63;;;15.57;;
38901;SDS011;24661;53.566;9.910;2022-11-25T00:44:47;113.33;;;18.73;;
38901;SDS011;24661;53.566;9.910;2022-11-25T00:47:14;50.57;;;14.17;;
38901;SDS011;24661;53.566;9.910;2022-11-25T00:49:42;60.10;;;13.63;;
38901;SDS011;24661;53.566;9.910;2022-11-25T00:52:09;43.93;;;13.67;;
38901;SDS011;24661;53.566;9.910;2022-11-25T00:54:38;128.07;;;22.27;;
38901;SDS011;24661;53.566;9.910;2022-11-25T00:57:04;119.13;;;21.53;;
38901;SDS011;24661;53.566;9.910;2022-11-25T00:59:30;54.87;;;14.77;;
38901;SDS011;24661;53.566;9.910;2022-11-25T01:01:55;65.63;;;16.87;;
38901;SDS011;24661;53.566;9.910;2022-11-25T01:04:21;83.70;;;18.77;;
38901;SDS011;24661;53.566;9.910;2022-11-25T01:06:47;73.80;;;18.73;;
38901;SDS011;24661;53.566;9.910;2022-11-25T01:09:13;62.47;;;15.40;;
38901;SDS011;24661;53.566;9.910;2022-11-25T01:11:39;72.17;;;17.23;;
38901;SDS011;24661;53.566;9.910;2022-11-25T01:14:04;54.03;;;17.27;;
38901;SDS011;24661;53.566;9.910;2022-11-25T01:16:30;84.23;;;17.77;;
38901;SDS011;24661;53.566;9.910;2022-11-25T01:18:57;57.80;;;15.07;;
38901;SDS011;24661;53.566;9.910;2022-11-25T01:21:25;46.07;;;14.43;;
38901;SDS011;24661;53.566;9.910;2022-11-25T01:23:53;42.20;;;14.83;;
38901;SDS011;24661;53.566;9.910;2022-11-25T01:26:20;77.90;;;18.03;;
38901;SDS011;24661;53.566;9.910;2022-11-25T01:28:48;39.80;;;13.67;;
38901;SDS011;24661;53.566;9.910;2022-11-25T01:31:18;67.17;;;17.87;;
38901;SDS011;24661;53.566;9.910;2022-11-25T01:33:45;77.00;;;19.30;;
38901;SDS011;24661;53.566;9.910;2022-11-25T01:36:13;49.60;;;17.97;;
38901;SDS011;24661;53.566;9.910;2022-11-25T01:38:40;72.77;;;18.13;;
38901;SDS011;24661;53.566;9.910;2022-11-25T01:41:07;43.83;;;17.03;;
38901;SDS011;24661;53.566;9.910;2022-11-25T01:43:34;33.33;;;14.13;;
38901;SDS011;24661;53.566;9.910;2022-11-25T01:49:00;60.40;;;16.30;;
38901;SDS011;24661;53.566;9.910;2022-11-25T01:54:13;41.00;;;16.03;;
38901;SDS011;24661;53.566;9.910;2022-11-25T01:56:47;47.77;;;16.40;;
38901;SDS011;24661;53.566;9.910;2022-11-25T01:59:16;30.87;;;13.70;;
38901;SDS011;24661;53.566;9.910;2022-11-25T02:01:42;45.40;;;16.97;;
38901;SDS011;24661;53.566;9.910;2022-11-25T02:04:07;34.07;;;13.93;;
38901;SDS011;24661;53.566;9.910;2022-11-25T02:06:37;30.63;;;14.40;;
38901;SDS011;24661;53.566;9.910;2022-11-25T02:09:08;47.90;;;15.13;;
38901;SDS011;24661;53.566;9.910;2022-11-25T02:11:34;31.03;;;13.40;;
38901;SDS011;24661;53.566;9.910;2022-11-25T02:14:03;32.37;;;14.23;;
38901;SDS011;24661;53.566;9.910;2022-11-25T02:16:29;39.67;;;15.67;;
38901;SDS011;24661;53.566;9.910;2022-11-25T02:18:56;34.80;;;15.03;;
38901;SDS011;24661;53.566;9.910;2022-11-25T02:21:45;34.67;;;14.17;;
38901;SDS011;24661;53.566;9.910;2022-11-25T02:26:43;30.60;;;13.63;;
38901;SDS011;24661;53.566;9.910;2022-11-25T02:29:08;41.57;;;14.17;;
38901;SDS011;24661;53.566;9.910;2022-11-25T02:31:34;40.97;;;15.50;;
38901;SDS011;24661;53.566;9.910;2022-11-25T02:34:00;42.70;;;14.97;;
38901;SDS011;24661;53.566;9.910;2022-11-25T02:36:25;33.23;;;14.47;;
38901;SDS011;24661;53.566;9.910;2022-11-25T02:38:58;69.60;;;17.27;;
38901;SDS011;24661;53.566;9.910;2022-11-25T02:41:32;39.63;;;15.97;;
38901;SDS011;24661;53.566;9.910;2022-11-25T02:44:01;67.20;;;17.20;;
38901;SDS011;24661;53.566;9.910;2022-11-25T02:46:28;59.20;;;16.17;;
38901;SDS011;24661;53.566;9.910;2022-11-25T02:48:55;87.20;;;20.27;;
38901;SDS011;24661;53.566;9.910;2022-11-25T02:51:22;67.57;;;17.53;;
38901;SDS011;24661;53.566;9.910;2022-11-25T02:53:50;67.60;;;18.83;;
38901;SDS011;24661;53.566;9.910;2022-11-25T02:56:17;89.47;;;19.87;;
38901;SDS011;24661;53.566;9.910;2022-11-25T02:58:44;45.33;;;15.73;;
38901;SDS011;24661;53.566;9.910;2022-11-25T03:01:10;65.00;;;16.70;;
38901;SDS011;24661;53.566;9.910;2022-11-25T03:03:36;86.20;;;21.73;;
38901;SDS011;24661;53.566;9.910;2022-11-25T03:06:03;53.10;;;17.73;;
38901;SDS011;24661;53.566;9.910;2022-11-25T03:08:29;48.33;;;18.40;;
38901;SDS011;24661;53.566;9.910;2022-11-25T03:10:54;35.00;;;15.87;;
38901;SDS011;24661;53.566;9.910;2022-11-25T03:13:21;49.40;;;18.13;;
38901;SDS011;24661;53.566;9.910;2022-11-25T03:15:46;47.57;;;17.73;;
38901;SDS011;24661;53.566;9.910;2022-11-25T03:18:13;45.20;;;15.30;;
38901;SDS011;24661;53.566;9.910;2022-11-25T03:20:39;35.90;;;14.43;;
38901;SDS011;24661;53.566;9.910;2022-11-25T03:23:04;31.07;;;14.83;;
38901;SDS011;24661;53.566;9.910;2022-11-25T03:25:30;33.80;;;15.40;;
38901;SDS011;24661;53.566;9.910;2022-11-25T03:27:56;32.37;;;14.33;;
38901;SDS011;24661;53.566;9.910;2022-11-25T03:30:23;33.90;;;14.53;;
38901;SDS011;24661;53.566;9.910;2022-11-25T03:32:50;33.80;;;14.70;;
38901;SDS011;24661;53.566;9.910;2022-11-25T03:35:16;28.90;;;14.60;;
38901;SDS011;24661;53.566;9.910;2022-11-25T03:37:42;34.67;;;15.20;;
38901;SDS011;24661;53.566;9.910;2022-11-25T03:40:08;32.93;;;14.13;;
38901;SDS011;24661;53.566;9.910;2022-11-25T03:42:35;32.73;;;13.23;;
38901;SDS011;24661;53.566;9.910;2022-11-25T03:45:02;27.73;;;14.13;;
38901;SDS011;24661;53.566;9.910;2022-11-25T03:47:28;27.70;;;13.60;;
38901;SDS011;24661;53.566;9.910;2022-11-25T03:49:54;32.10;;;13.20;;
38901;SDS011;24661;53.566;9.910;2022-11-25T03:52:19;30.60;;;14.70;;
38901;SDS011;24661;53.566;9.910;2022-11-25T03:54:45;26.00;;;13.07;;
38901;SDS011;24661;53.566;9.910;2022-11-25T03:57:11;29.57;;;13.73;;
38901;SDS011;24661;53.566;9.910;2022-11-25T03:59:36;30.17;;;12.73;;
38901;SDS011;24661;53.566;9.910;2022-11-25T04:02:02;34.20;;;13.50;;
38901;SDS011;24661;53.566;9.910;2022-11-25T04:04:28;40.60;;;14.83;;
38901;SDS011;24661;53.566;9.910;2022-11-25T04:06:54;26.23;;;13.17;;
38901;SDS011;24661;53.566;9.910;2022-11-25T04:09:20;32.27;;;14.67;;
38901;SDS011;24661;53.566;9.910;2022-11-25T04:11:45;24.30;;;12.23;;
38901;SDS011;24661;53.566;9.910;2022-11-25T04:14:29;26.27;;;11.90;;
38901;SDS011;24661;53.566;9.910;2022-11-25T04:16:55;24.97;;;12.10;;
38901;SDS011;24661;53.566;9.910;2022-11-25T04:19:22;25.87;;;12.73;;
38901;SDS011;24661;53.566;9.910;2022-11-25T04:21:48;26.70;;;11.93;;
38901;SDS011;24661;53.566;9.910;2022-11-25T04:24:13;25.90;;;11.93;;
38901;SDS011;24661;53.566;9.910;2022-11-25T04:26:39;26.67;;;11.67;;
38901;SDS011;24661;53.566;9.910;2022-11-25T04:29:05;24.10;;;13.07;;
38901;SDS011;24661;53.566;9.910;2022-11-25T04:31:31;27.90;;;12.73;;
38901;SDS011;24661;53.566;9.910;2022-11-25T04:33:56;31.23;;;12.90;;
38901;SDS011;24661;53.566;9.910;2022-11-25T04:36:22;26.73;;;12.47;;
38901;SDS011;24661;53.566;9.910;2022-11-25T04:38:48;29.93;;;12.60;;
38901;SDS011;24661;53.566;9.910;2022-11-25T04:41:14;29.27;;;12.17;;
38901;SDS011;24661;53.566;9.910;2022-11-25T04:43:39;25.17;;;12.07;;
38901;SDS011;24661;53.566;9.910;2022-11-25T04:46:05;21.13;;;11.30;;
38901;SDS011;24661;53.566;9.910;2022-11-25T04:48:31;28.67;;;11.70;;
38901;SDS011;24661;53.566;9.910;2022-11-25T04:50:56;27.97;;;13.07;;
38901;SDS011;24661;53.566;9.910;2022-11-25T04:53:22;23.60;;;12.00;;
38901;SDS011;24661;53.566;9.910;2022-11-25T04:55:47;30.63;;;13.70;;
38901;SDS011;24661;53.566;9.910;2022-11-25T04:58:13;29.50;;;13.63;;
38901;SDS011;24661;53.566;9.910;2022-11-25T05:00:59;30.53;;;13.47;;
38901;SDS011;24661;53.566;9.910;2022-11-25T05:03:25;21.43;;;12.40;;
38901;SDS011;24661;53.566;9.910;2022-11-25T05:05:50;25.80;;;12.10;;
38901;SDS011;24661;53.566;9.910;2022-11-25T05:08:16;24.43;;;12.47;;
38901;SDS011;24661;53.566;9.910;2022-11-25T05:10:41;26.23;;;11.77;;
38901;SDS011;24661;53.566;9.910;2022-11-25T05:13:07;23.37;;;11.20;;
38901;SDS011;24661;53.566;9.910;2022-11-25T05:15:32;22.97;;;11.70;;
38901;SDS011;24661;53.566;9.910;2022-11-25T05:17:59;21.87;;;11.20;;
38901;SDS011;24661;53.566;9.910;2022-11-25T05:20:25;23.50;;;11.73;;
38901;SDS011;24661;53.566;9.910;2022-11-25T05:22:50;23.03;;;11.30;;
38901;SDS011;24661;53.566;9.910;2022-11-25T05:25:16;25.40;;;11.97;;
38901;SDS011;24661;53.566;9.910;2022-11-25T05:27:41;23.40;;;12.30;;
38901;SDS011;24661;53.566;9.910;2022-11-25T05:30:07;26.53;;;10.47;;
38901;SDS011;24661;53.566;9.910;2022-11-25T05:32:33;18.53;;;9.70;;
38901;SDS011;24661;53.566;9.910;2022-11-25T05:34:59;18.13;;;9.73;;
38901;SDS011;24661;53.566;9.910;2022-11-25T05:37:24;22.90;;;10.63;;
38901;SDS011;24661;53.566;9.910;2022-11-25T05:39:50;19.30;;;10.80;;
38901;SDS011;24661;53.566;9.910;2022-11-25T05:42:16;18.63;;;10.40;;
38901;SDS011;24661;53.566;9.910;2022-11-25T05:44:41;25.20;;;11.47;;
38901;SDS011;24661;53.566;9.910;2022-11-25T05:47:07;19.87;;;10.03;;
38901;SDS011;24661;53.566;9.910;2022-11-25T05:49:32;26.87;;;13.13;;
38901;SDS011;24661;53.566;9.910;2022-11-25T05:51:58;26.10;;;10.70;;
38901;SDS011;24661;53.566;9.910;2022-11-25T05:54:25;26.43;;;10.30;;
38901;SDS011;24661;53.566;9.910;2022-11-25T05:56:50;22.50;;;10.17;;
38901;SDS011;24661;53.566;9.910;2022-11-25T05:59:16;24.13;;;10.20;;
38901;SDS011;24661;53.566;9.910;2022-11-25T06:01:42;22.50;;;9.10;;
38901;SDS011;24661;53.566;9.910;2022-11-25T06:04:08;22.37;;;9.47;;
38901;SDS011;24661;53.566;9.910;2022-11-25T06:06:35;21.60;;;9.10;;
38901;SDS011;24661;53.566;9.910;2022-11-25T06:09:01;20.63;;;10.07;;
38901;SDS011;24661;53.566;9.910;2022-11-25T06:11:27;23.30;;;11.20;;
38901;SDS011;24661;53.566;9.910;2022-11-25T06:13:54;24.30;;;9.47;;
38901;SDS011;24661;53.566;9.910;2022-11-25T06:16:21;22.33;;;10.30;;
38901;SDS011;24661;53.566;9.910;2022-11-25T06:18:47;16.90;;;9.27;;
38901;SDS011;24661;53.566;9.910;2022-11-25T06:21:20;25.17;;;10.17;;
38901;SDS011;24661;53.566;9.910;2022-11-25T06:23:45;21.27;;;9.47;;
38901;SDS011;24661;53.566;9.910;2022-11-25T06:26:14;15.67;;;9.27;;
38901;SDS011;24661;53.566;9.910;2022-11-25T06:28:42;22.17;;;10.33;;
38901;SDS011;24661;53.566;9.910;2022-11-25T06:31:09;22.17;;;11.47;;
38901;SDS011;24661;53.566;9.910;2022-11-25T06:33:37;18.97;;;9.30;;
38901;SDS011;24661;53.566;9.910;2022-11-25T06:36:03;20.67;;;9.77;;
38901;SDS011;24661;53.566;9.910;2022-11-25T06:38:30;21.10;;;10.17;;
38901;SDS011;24661;53.566;9.910;2022-11-25T06:41:02;21.53;;;10.10;;
38901;SDS011;24661;53.566;9.910;2022-11-25T06:43:29;22.03;;;9.30;;
38901;SDS011;24661;53.566;9.910;2022-11-25T06:46:03;16.73;;;9.03;;
38901;SDS011;24661;53.566;9.910;2022-11-25T06:48:30;19.30;;;9.93;;
38901;SDS011;24661;53.566;9.910;2022-11-25T06:50:56;19.47;;;10.63;;
38901;SDS011;24661;53.566;9.910;2022-11-25T06:53:23;24.23;;;10.17;;
38901;SDS011;24661;53.566;9.910;2022-11-25T06:55:55;22.77;;;9.70;;
38901;SDS011;24661;53.566;9.910;2022-11-25T06:58:26;19.70;;;10.00;;
38901;SDS011;24661;53.566;9.910;2022-11-25T07:00:51;23.13;;;10.33;;
38901;SDS011;24661;53.566;9.910;2022-11-25T07:03:17;18.17;;;10.20;;
38901;SDS011;24661;53.566;9.910;2022-11-25T07:05:42;23.47;;;9.90;;
38901;SDS011;24661;53.566;9.910;2022-11-25T07:08:08;22.40;;;10.33;;
38901;SDS011;24661;53.566;9.910;2022-11-25T07:10:33;22.10;;;11.43;;
38901;SDS011;24661;53.566;9.910;2022-11-25T07:12:59;22.40;;;10.47;;
38901;SDS011;24661;53.566;9.910;2022-11-25T07:15:24;17.57;;;9.37;;
38901;SDS011;24661;53.566;9.910;2022-11-25T07:17:50;18.67;;;9.53;;
38901;SDS011;24661;53.566;9.910;2022-11-25T07:20:16;15.30;;;9.33;;
38901;SDS011;24661;53.566;9.910;2022-11-25T07:22:41;22.53;;;10.07;;
38901;SDS011;24661;53.566;9.910;2022-11-25T07:25:08;18.57;;;9.70;;
38901;SDS011;24661;53.566;9.910;2022-11-25T07:27:34;21.37;;;10.17;;
38901;SDS011;24661;53.566;9.910;2022-11-25T07:29:59;25.93;;;10.10;;
38901;SDS011;24661;53.566;9.910;2022-11-25T07:32:25;23.23;;;10.10;;
38901;SDS011;24661;53.566;9.910;2022-11-25T07:34:50;20.97;;;10.47;;
38901;SDS011;24661;53.566;9.910;2022-11-25T07:37:16;23.40;;;10.73;;
38901;SDS011;24661;53.566;9.910;2022-11-25T07:39:42;15.53;;;9.10;;
38901;SDS011;24661;53.566;9.910;2022-11-25T07:42:07;21.97;;;9.93;;
38901;SDS011;24661;53.566;9.910;2022-11-25T07:44:33;22.70;;;9.50;;
38901;SDS011;24661;53.566;9.910;2022-11-25T07:46:59;19.83;;;10.50;;
38901;SDS011;24661;53.566;9.910;2022-11-25T07:49:24;22.00;;;9.07;;
38901;SDS011;24661;53.566;9.910;2022-11-25T07:51:51;21.33;;;9.73;;
38901;SDS011;24661;53.566;9.910;2022-11-25T07:54:19;19.00;;;7.87;;
38901;SDS011;24661;53.566;9.910;2022-11-25T07:56:46;16.53;;;9.00;;
38901;SDS011;24661;53.566;9.910;2022-11-25T07:59:14;21.63;;;9.50;;
38901;SDS011;24661;53.566;9.910;2022-11-25T08:01:44;21.30;;;8.80;;
38901;SDS011;24661;53.566;9.910;2022-11-25T08:04:12;16.43;;;8.37;;
38901;SDS011;24661;53.566;9.910;2022-11-25T08:06:40;23.20;;;9.37;;
38901;SDS011;24661;53.566;9.910;2022-11-25T08:09:08;21.73;;;9.53;;
38901;SDS011;24661;53.566;9.910;2022-11-25T08:11:34;27.30;;;9.03;;
38901;SDS011;24661;53.566;9.910;2022-11-25T08:14:01;21.33;;;8.30;;
38901;SDS011;24661;53.566;9.910;2022-11-25T08:16:28;16.90;;;8.53;;
38901;SDS011;24661;53.566;9.910;2022-11-25T08:18:58;24.80;;;8.60;;
38901;SDS011;24661;53.566;9.910;2022-11-25T08:21:25;19.50;;;8.73;;
38901;SDS011;24661;53.566;9.910;2022-11-25T08:23:51;18.07;;;8.23;;
38901;SDS011;24661;53.566;9.910;2022-11-25T08:26:27;16.90;;;8.13;;
38901;SDS011;24661;53.566;9.910;2022-11-25T08:29:00;27.17;;;7.83;;
38901;SDS011;24661;53.566;9.910;2022-11-25T08:31:28;15.60;;;7.53;;
38901;SDS011;24661;53.566;9.910;2022-11-25T08:33:59;18.47;;;8.00;;
38901;SDS011;24661;53.566;9.910;2022-11-25T08:36:25;17.60;;;7.33;;
38901;SDS011;24661;53.566;9.910;2022-11-25T08:38:52;17.07;;;6.70;;
38901;SDS011;24661;53.566;9.910;2022-11-25T08:41:23;17.77;;;9.17;;
38901;SDS011;24661;53.566;9.910;2022-11-25T08:43:53;17.90;;;7.47;;
38901;SDS011;24661;53.566;9.910;2022-11-25T08:46:21;17.10;;;7.33;;
38901;SDS011;24661;53.566;9.910;2022-11-25T08:48:50;26.83;;;7.50;;
38901;SDS011;24661;53.566;9.910;2022-11-25T08:51:17;15.13;;;7.10;;
38901;SDS011;24661;53.566;9.910;2022-11-25T08:53:44;16.47;;;6.83;;
38901;SDS011;24661;53.566;9.910;2022-11-25T08:56:11;17.60;;;6.93;;
38901;SDS011;24661;53.566;9.910;2022-11-25T08:58:37;17.20;;;6.97;;
38901;SDS011;24661;53.566;9.910;2022-11-25T09:01:03;13.87;;;6.80;;
38901;SDS011;24661;53.566;9.910;2022-11-25T09:03:33;23.17;;;7.13;;
38901;SDS011;24661;53.566;9.910;2022-11-25T09:06:01;18.27;;;6.50;;
38901;SDS011;24661;53.566;9.910;2022-11-25T09:08:28;16.07;;;6.93;;
38901;SDS011;24661;53.566;9.910;2022-11-25T09:10:55;16.80;;;6.87;;
38901;SDS011;24661;53.566;9.910;2022-11-25T09:13:21;14.13;;;7.77;;
38901;SDS011;24661;53.566;9.910;2022-11-25T09:15:47;13.20;;;6.57;;
38901;SDS011;24661;53.566;9.910;2022-11-25T09:18:13;16.37;;;8.20;;
38901;SDS011;24661;53.566;9.910;2022-11-25T09:20:40;22.37;;;7.13;;
38901;SDS011;24661;53.566;9.910;2022-11-25T09:23:06;20.27;;;8.03;;
38901;SDS011;24661;53.566;9.910;2022-11-25T09:25:34;18.30;;;7.53;;
38901;SDS011;24661;53.566;9.910;2022-11-25T09:28:00;16.17;;;7.93;;
38901;SDS011;24661;53.566;9.910;2022-11-25T09:30:26;21.27;;;8.93;;
38901;SDS011;24661;53.566;9.910;2022-11-25T09:32:52;18.67;;;7.87;;
38901;SDS011;24661;53.566;9.910;2022-11-25T09:35:19;24.33;;;7.50;;
38901;SDS011;24661;53.566;9.910;2022-11-25T09:37:45;21.03;;;8.07;;
38901;SDS011;24661;53.566;9.910;2022-11-25T09:40:16;20.67;;;7.90;;
38901;SDS011;24661;53.566;9.910;2022-11-25T09:49:22;16.60;;;7.97;;
38901;SDS011;24661;53.566;9.910;2022-11-25T09:54:57;12.80;;;6.60;;
38901;SDS011;24661;53.566;9.910;2022-11-25T09:57:31;18.23;;;7.20;;
38901;SDS011;24661;53.566;9.910;2022-11-25T10:00:05;20.00;;;7.30;;
38901;SDS011;24661;53.566;9.910;2022-11-25T10:05:34;21.60;;;8.70;;
38901;SDS011;24661;53.566;9.910;2022-11-25T10:08:09;16.03;;;7.37;;
38901;SDS011;24661;53.566;9.910;2022-11-25T10:10:41;16.67;;;7.60;;
38901;SDS011;24661;53.566;9.910;2022-11-25T10:13:14;16.77;;;6.93;;
38901;SDS011;24661;53.566;9.910;2022-11-25T10:15:47;16.47;;;7.43;;
38901;SDS011;24661;53.566;9.910;2022-11-25T10:20:40;17.37;;;6.97;;
38901;SDS011;24661;53.566;9.910;2022-11-25T10:26:00;13.10;;;7.20;;
38901;SDS011;24661;53.566;9.910;2022-11-25T10:28:33;22.77;;;9.10;;
38901;SDS011;24661;53.566;9.910;2022-11-25T10:41:57;27.67;;;8.20;;
38901;SDS011;24661;53.566;9.910;2022-11-25T10:44:32;17.37;;;7.23;;
38901;SDS011;24661;53.566;9.910;2022-11-25T10:47:14;21.47;;;8.03;;
38901;SDS011;24661;53.566;9.910;2022-11-25T10:53:02;16.17;;;7.50;;
38901;SDS011;24661;53.566;9.910;2022-11-25T10:55:33;13.53;;;8.30;;
38901;SDS011;24661;53.566;9.910;2022-11-25T10:57:59;24.77;;;8.13;;
38901;SDS011;24661;53.566;9.910;2022-11-25T11:01:20;20.37;;;7.17;;
38901;SDS011;24661;53.566;9.910;2022-11-25T11:03:52;19.63;;;9.03;;
38901;SDS011;24661;53.566;9.910;2022-11-25T11:06:28;23.60;;;9.07;;
38901;SDS011;24661;53.566;9.910;2022-11-25T11:08:55;27.87;;;9.07;;
38901;SDS011;24661;53.566;9.910;2022-11-25T11:11:22;16.13;;;8.03;;
38901;SDS011;24661;53.566;9.910;2022-11-25T11:13:48;21.30;;;8.57;;
38901;SDS011;24661;53.566;9.910;2022-11-25T11:16:23;19.17;;;8.53;;
38901;SDS011;24661;53.566;9.910;2022-11-25T11:18:59;17.87;;;7.40;;
38901;SDS011;24661;53.566;9.910;2022-11-25T11:21:30;18.17;;;7.43;;
38901;SDS011;24661;53.566;9.910;2022-11-25T11:23:58;15.73;;;7.13;;
38901;SDS011;24661;53.566;9.910;2022-11-25T11:26:29;12.33;;;7.23;;
38901;SDS011;24661;53.566;9.910;2022-11-25T11:31:50;22.60;;;9.20;;
38901;SDS011;24661;53.566;9.910;2022-11-25T11:34:33;19.50;;;9.13;;
38901;SDS011;24661;53.566;9.910;2022-11-25T11:40:22;20.20;;;8.20;;
38901;SDS011;24661;53.566;9.910;2022-11-25T11:50:42;20.17;;;8.60;;
38901;SDS011;24661;53.566;9.910;2022-11-25T11:55:53;26.13;;;7.50;;
38901;SDS011;24661;53.566;9.910;2022-11-25T12:03:58;20.13;;;8.93;;
38901;SDS011;24661;53.566;9.910;2022-11-25T12:06:32;19.77;;;8.93;;
38901;SDS011;24661;53.566;9.910;2022-11-25T12:09:06;22.83;;;9.37;;
38901;SDS011;24661;53.566;9.910;2022-11-25T12:11:41;21.03;;;8.40;;
38901;SDS011;24661;53.566;9.910;2022-11-25T12:16:56;23.97;;;9.20;;
38901;SDS011;24661;53.566;9.910;2022-11-25T12:19:29;15.40;;;7.60;;
38901;SDS011;24661;53.566;9.910;2022-11-25T12:22:07;23.13;;;7.93;;
38901;SDS011;24661;53.566;9.910;2022-11-25T12:27:39;13.73;;;6.70;;
38901;SDS011;24661;53.566;9.910;2022-11-25T12:30:21;22.07;;;8.40;;
38901;SDS011;24661;53.566;9.910;2022-11-25T12:46:46;16.97;;;8.33;;
38901;SDS011;24661;53.566;9.910;2022-11-25T12:49:33;16.80;;;9.00;;
38901;SDS011;24661;53.566;9.910;2022-11-25T12:52:34;18.13;;;8.13;;
38901;SDS011;24661;53.566;9.910;2022-11-25T12:55:04;18.47;;;8.07;;
38901;SDS011;24661;53.566;9.910;2022-11-25T13:11:27;25.20;;;8.90;;
38901;SDS011;24661;53.566;9.910;2022-11-25T13:17:05;17.50;;;7.30;;
38901;SDS011;24661;53.566;9.910;2022-11-25T13:19:35;17.90;;;7.30;;
38901;SDS011;24661;53.566;9.910;2022-11-25T13:22:02;26.43;;;10.07;;
38901;SDS011;24661;53.566;9.910;2022-11-25T13:24:47;18.33;;;7.50;;
38901;SDS011;24661;53.566;9.910;2022-11-25T13:27:54;17.67;;;8.33;;
38901;SDS011;24661;53.566;9.910;2022-11-25T13:35:52;24.90;;;11.13;;
38901;SDS011;24661;53.566;9.910;2022-11-25T13:43:27;19.07;;;9.30;;
38901;SDS011;24661;53.566;9.910;2022-11-25T13:45:53;21.47;;;8.90;;
38901;SDS011;24661;53.566;9.910;2022-11-25T13:48:27;25.53;;;9.23;;
38901;SDS011;24661;53.566;9.910;2022-11-25T13:51:16;21.40;;;9.57;;
38901;SDS011;24661;53.566;9.910;2022-11-25T13:54:00;18.47;;;9.53;;
38901;SDS011;24661;53.566;9.910;2022-11-25T13:56:33;22.67;;;9.60;;
38901;SDS011;24661;53.566;9.910;2022-11-25T14:01:39;20.13;;;8.40;;
38901;SDS011;24661;53.566;9.910;2022-11-25T14:04:19;19.37;;;8.77;;
38901;SDS011;24661;53.566;9.910;2022-11-25T14:20:50;19.23;;;6.60;;
38901;SDS011;24661;53.566;9.910;2022-11-25T14:26:24;15.93;;;5.93;;
38901;SDS011;24661;53.566;9.910;2022-11-25T14:31:38;13.13;;;7.00;;
38901;SDS011;24661;53.566;9.910;2022-11-25T14:36:48;18.10;;;7.30;;
38901;SDS011;24661;53.566;9.910;2022-11-25T14:39:24;14.17;;;7.40;;
38901;SDS011;24661;53.566;9.910;2022-11-25T14:42:12;14.70;;;5.87;;
38901;SDS011;24661;53.566;9.910;2022-11-25T14:47:15;16.13;;;6.60;;
38901;SDS011;24661;53.566;9.910;2022-11-25T14:52:33;18.10;;;6.93;;
38901;SDS011;24661;53.566;9.910;2022-11-25T14:55:02;15.63;;;6.30;;
38901;SDS011;24661;53.566;9.910;2022-11-25T14:57:31;15.20;;;7.03;;
38901;SDS011;24661;53.566;9.910;2022-11-25T15:00:08;21.83;;;6.80;;
38901;SDS011;24661;53.566;9.910;2022-11-25T15:02:38;18.47;;;7.43;;
38901;SDS011;24661;53.566;9.910;2022-11-25T15:07:32;13.80;;;6.60;;
38901;SDS011;24661;53.566;9.910;2022-11-25T15:09:57;16.97;;;8.00;;
38901;SDS011;24661;53.566;9.910;2022-11-25T15:12:24;12.50;;;6.63;;
38901;SDS011;24661;53.566;9.910;2022-11-25T15:14:54;21.83;;;9.63;;
38901;SDS011;24661;53.566;9.910;2022-11-25T15:17:23;15.57;;;7.40;;
38901;SDS011;24661;53.566;9.910;2022-11-25T15:19:55;18.40;;;7.47;;
38901;SDS011;24661;53.566;9.910;2022-11-25T15:22:23;13.87;;;7.90;;
38901;SDS011;24661;53.566;9.910;2022-11-25T15:24:49;16.83;;;8.30;;
38901;SDS011;24661;53.566;9.910;2022-11-25T15:27:21;17.13;;;7.40;;
38901;SDS011;24661;53.566;9.910;2022-11-25T15:29:51;32.07;;;15.77;;
38901;SDS011;24661;53.566;9.910;2022-11-25T15:32:28;25.60;;;10.50;;
38901;SDS011;24661;53.566;9.910;2022-11-25T15:34:58;18.83;;;8.97;;
38901;SDS011;24661;53.566;9.910;2022-11-25T15:37:26;17.30;;;7.67;;
38901;SDS011;24661;53.566;9.910;2022-11-25T15:42:56;13.23;;;6.57;;
38901;SDS011;24661;53.566;9.910;2022-11-25T15:45:31;12.97;;;6.73;;
38901;SDS011;24661;53.566;9.910;2022-11-25T15:48:14;12.87;;;6.70;;
38901;SDS011;24661;53.566;9.910;2022-11-25T15:50:47;14.03;;;7.37;;
38901;SDS011;24661;53.566;9.910;2022-11-25T15:53:18;21.03;;;8.33;;
38901;SDS011;24661;53.566;9.910;2022-11-25T15:55:49;14.73;;;7.70;;
38901;SDS011;24661;53.566;9.910;2022-11-25T15:58:21;19.37;;;7.53;;
38901;SDS011;24661;53.566;9.910;2022-11-25T16:01:01;16.27;;;8.10;;
38901;SDS011;24661;53.566;9.910;2022-11-25T16:03:39;18.37;;;7.90;;
38901;SDS011;24661;53.566;9.910;2022-11-25T16:06:21;15.87;;;8.73;;
38901;SDS011;24661;53.566;9.910;2022-11-25T16:08:52;20.30;;;10.10;;
38901;SDS011;24661;53.566;9.910;2022-11-25T16:11:26;21.70;;;9.57;;
38901;SDS011;24661;53.566;9.910;2022-11-25T16:16:59;20.10;;;8.53;;
38901;SDS011;24661;53.566;9.910;2022-11-25T16:19:33;18.70;;;8.77;;
38901;SDS011;24661;53.566;9.910;2022-11-25T16:22:05;14.33;;;8.60;;
38901;SDS011;24661;53.566;9.910;2022-11-25T16:25:04;30.80;;;11.13;;
38901;SDS011;24661;53.566;9.910;2022-11-25T16:27:35;18.97;;;9.33;;
38901;SDS011;24661;53.566;9.910;2022-11-25T16:32:30;21.20;;;9.73;;
38901;SDS011;24661;53.566;9.910;2022-11-25T16:34:59;20.53;;;10.20;;
38901;SDS011;24661;53.566;9.910;2022-11-25T16:37:48;17.57;;;9.27;;
38901;SDS011;24661;53.566;9.910;2022-11-25T16:40:14;19.93;;;10.17;;
38901;SDS011;24661;53.566;9.910;2022-11-25T16:42:43;24.80;;;11.77;;
38901;SDS011;24661;53.566;9.910;2022-11-25T16:45:29;26.70;;;12.97;;
38901;SDS011;24661;53.566;9.910;2022-11-25T16:47:54;32.23;;;11.43;;
38901;SDS011;24661;53.566;9.910;2022-11-25T16:50:20;24.90;;;11.70;;
38901;SDS011;24661;53.566;9.910;2022-11-25T16:52:46;20.20;;;11.03;;
38901;SDS011;24661;53.566;9.910;2022-11-25T16:55:12;28.23;;;13.80;;
38901;SDS011;24661;53.566;9.910;2022-11-25T16:57:38;22.77;;;10.77;;
38901;SDS011;24661;53.566;9.910;2022-11-25T17:00:06;23.03;;;12.93;;
38901;SDS011;24661;53.566;9.910;2022-11-25T17:02:35;26.13;;;11.47;;
38901;SDS011;24661;53.566;9.910;2022-11-25T17:07:47;19.17;;;10.67;;
38901;SDS011;24661;53.566;9.910;2022-11-25T17:10:16;19.00;;;10.97;;
38901;SDS011;24661;53.566;9.910;2022-11-25T17:12:43;18.03;;;11.67;;
38901;SDS011;24661;53.566;9.910;2022-11-25T17:15:18;20.33;;;11.83;;